Time;durP1;ratioP1;P1;durP2;ratioP2;P2;SDS_P1;SDS_P2;PMS_P1;PMS_P2;Temp;Humidity;BMP_temperature;BMP_pressure;BME280_temperature;BME280_humidity;BME280_pressure;Samples;Min_cycle;Max_cycle;Signal;HPM_P1;HPM_P2
2023/06/03 00:01:24;;;;;;;5.00;4.60;;;28.10;49.30;;;;;;5072020;28;20551;-71
2023/06/03 00:03:53;;;;;;;7.47;4.40;;;28.10;49.20;;;;;;5072659;28;20455;-71
2023/06/03 00:06:21;;;;;;;6.07;5.57;;;28.10;49.20;;;;;;5071522;28;20456;-71
2023/06/03 00:08:49;;;;;;;5.67;4.47;;;28.10;49.20;;;;;;5074884;28;20450;-71
2023/06/03 00:11:19;;;;;;;6.20;5.60;;;28.10;49.20;;;;;;5071934;28;20508;-71
2023/06/03 00:13:48;;;;;;;4.80;4.40;;;28.10;49.10;;;;;;5074742;28;20467;-71
2023/06/03 00:16:17;;;;;;;5.10;4.70;;;28.10;49.20;;;;;;5072821;28;20453;-71
2023/06/03 00:18:45;;;;;;;6.73;4.70;;;28.10;49.30;;;;;;5074088;28;20823;-71
2023/06/03 00:21:16;;;;;;;4.17;3.80;;;28.00;49.20;;;;;;5071512;28;20862;-71
2023/06/03 00:23:45;;;;;;;3.90;3.70;;;28.00;49.30;;;;;;5071550;28;21251;-71
2023/06/03 00:26:14;;;;;;;4.97;4.13;;;28.00;49.30;;;;;;5074756;28;20465;-71
2023/06/03 00:28:46;;;;;;;6.37;4.63;;;28.00;49.20;;;;;;5052119;28;20490;-71
2023/06/03 00:31:14;;;;;;;4.87;4.47;;;28.00;49.40;;;;;;5072352;28;20462;-71
2023/06/03 00:33:42;;;;;;;5.57;5.17;;;27.90;49.40;;;;;;5072089;28;20474;-71
2023/06/03 00:36:11;;;;;;;4.70;4.23;;;27.90;49.30;;;;;;5071893;28;20554;-71
2023/06/03 00:38:39;;;;;;;4.40;4.00;;;27.90;49.50;;;;;;5075194;28;20853;-71
2023/06/03 00:41:07;;;;;;;4.43;4.03;;;27.90;49.30;;;;;;5072879;28;20451;-71
2023/06/03 00:43:36;;;;;;;4.73;4.33;;;27.90;49.30;;;;;;5073049;28;20451;-71
2023/06/03 00:46:07;;;;;;;4.97;4.50;;;27.90;49.50;;;;;;5072174;28;20470;-71
2023/06/03 00:48:35;;;;;;;4.63;4.23;;;27.90;49.40;;;;;;5071821;28;20440;-71
2023/06/03 00:51:04;;;;;;;4.63;4.17;;;27.90;49.40;;;;;;5071102;28;20447;-71
2023/06/03 00:53:33;;;;;;;5.63;5.13;;;27.90;49.60;;;;;;5065667;28;20814;-71
2023/06/03 00:56:01;;;;;;;5.63;4.23;;;27.80;49.50;;;;;;5051773;28;20461;-71
2023/06/03 00:58:29;;;;;;;4.47;3.90;;;27.80;49.40;;;;;;5053581;28;20510;-71
2023/06/03 01:00:57;;;;;;;4.90;4.50;;;27.80;49.50;;;;;;5071312;28;20455;-71
2023/06/03 01:03:27;;;;;;;4.97;4.57;;;27.80;49.40;;;;;;5053568;28;21413;-71
2023/06/03 01:06:03;;;;;;;5.20;4.70;;;27.80;49.30;;;;;;5052542;28;20467;-71
2023/06/03 01:08:36;;;;;;;4.57;4.17;;;27.80;49.30;;;;;;5513894;22;20448;-81
2023/06/03 01:11:10;;;;;;;5.37;4.87;;;27.70;49.30;;;;;;5085849;28;20464;-78
2023/06/03 01:13:46;;;;;;;4.87;4.47;;;27.70;49.30;;;;;;5105026;28;20986;-78
2023/06/03 01:16:18;;;;;;;4.60;4.03;;;27.70;49.50;;;;;;5104460;28;20456;-79
2023/06/03 01:18:49;;;;;;;5.37;4.80;;;27.70;49.40;;;;;;5107957;28;20467;-79
2023/06/03 01:21:17;;;;;;;4.20;3.90;;;27.70;49.40;;;;;;5109639;28;20515;-78
2023/06/03 01:23:48;;;;;;;4.70;4.30;;;27.70;49.30;;;;;;5108863;28;20468;-79
2023/06/03 01:26:16;;;;;;;4.10;3.70;;;27.60;49.50;;;;;;5102720;28;20448;-78
2023/06/03 01:28:55;;;;;;;7.33;4.33;;;27.70;49.40;;;;;;5067029;22;20573;-64
2023/06/03 01:31:24;;;;;;;4.97;4.47;;;27.60;49.50;;;;;;5053914;28;20460;-65
2023/06/03 01:33:53;;;;;;;5.10;4.33;;;27.60;49.50;;;;;;5046480;28;20495;-64
2023/06/03 01:36:21;;;;;;;4.73;4.00;;;27.60;49.60;;;;;;5051710;28;20470;-64
2023/06/03 01:38:50;;;;;;;5.17;4.77;;;27.60;49.50;;;;;;5049249;28;20478;-64
2023/06/03 01:41:18;;;;;;;4.57;4.27;;;27.60;49.80;;;;;;5043838;28;21243;-63
2023/06/03 01:43:47;;;;;;;5.13;3.77;;;27.60;49.60;;;;;;5052545;28;20518;-64
2023/06/03 01:46:17;;;;;;;4.57;4.17;;;27.60;49.50;;;;;;5051193;28;20446;-64
2023/06/03 01:48:45;;;;;;;4.27;3.87;;;27.50;49.80;;;;;;5051162;28;20577;-64
2023/06/03 01:51:13;;;;;;;3.77;3.47;;;27.50;49.50;;;;;;5043549;28;20456;-66
2023/06/03 01:53:41;;;;;;;4.50;4.20;;;27.50;49.60;;;;;;5051523;28;21244;-64
2023/06/03 01:56:10;;;;;;;4.90;4.40;;;27.50;49.60;;;;;;5046879;28;20456;-64
2023/06/03 01:58:39;;;;;;;4.60;4.20;;;27.50;49.60;;;;;;5047078;28;20460;-64
2023/06/03 02:01:08;;;;;;;4.00;3.70;;;27.50;49.60;;;;;;5047214;28;20477;-63
2023/06/03 02:03:38;;;;;;;4.33;3.93;;;27.50;49.60;;;;;;5053565;28;20555;-63
2023/06/03 02:06:06;;;;;;;4.43;4.13;;;27.50;49.70;;;;;;5056659;28;20524;-64
2023/06/03 02:08:36;;;;;;;4.47;4.03;;;27.40;49.50;;;;;;5042648;28;20900;-64
2023/06/03 02:11:04;;;;;;;5.10;4.63;;;27.40;49.60;;;;;;5046367;28;20574;-64
2023/06/03 02:13:33;;;;;;;5.60;4.37;;;27.40;50.00;;;;;;5048572;28;20507;-63
2023/06/03 02:16:03;;;;;;;4.40;4.00;;;27.40;49.70;;;;;;5048382;28;20456;-64
2023/06/03 02:18:32;;;;;;;4.03;3.67;;;27.40;49.60;;;;;;5051520;28;20459;-64
2023/06/03 02:21:02;;;;;;;5.50;5.00;;;27.40;49.70;;;;;;5048262;28;20455;-64
2023/06/03 02:23:30;;;;;;;4.33;4.03;;;27.40;49.90;;;;;;5046516;28;20986;-64
2023/06/03 02:26:01;;;;;;;4.90;4.40;;;27.40;49.80;;;;;;5051641;28;20450;-64
2023/06/03 02:28:29;;;;;;;4.77;4.37;;;27.30;49.80;;;;;;5045929;28;21025;-67
2023/06/03 02:30:58;;;;;;;3.60;3.33;;;27.30;49.70;;;;;;5051663;28;20469;-65
2023/06/03 02:33:26;;;;;;;4.20;3.80;;;27.30;49.80;;;;;;5046365;28;20459;-65
2023/06/03 02:35:54;;;;;;;4.33;3.93;;;27.30;49.90;;;;;;5047599;28;20472;-66
2023/06/03 02:38:24;;;;;;;4.90;4.10;;;27.30;49.90;;;;;;5043194;28;20872;-66
2023/06/03 02:40:52;;;;;;;4.50;4.10;;;27.30;49.80;;;;;;5033496;28;20547;-66
2023/06/03 02:43:21;;;;;;;4.40;4.03;;;27.30;49.80;;;;;;5033251;28;20513;-66
2023/06/03 02:45:49;;;;;;;4.70;3.50;;;27.30;49.90;;;;;;5033290;28;20445;-65
2023/06/03 02:48:17;;;;;;;4.53;3.90;;;27.30;49.80;;;;;;5033298;28;20507;-65
2023/06/03 02:50:46;;;;;;;4.07;3.77;;;27.30;49.80;;;;;;5036133;28;20518;-65
2023/06/03 02:53:15;;;;;;;5.03;3.83;;;27.20;49.90;;;;;;5034007;28;20829;-65
2023/06/03 02:55:45;;;;;;;4.77;4.40;;;27.20;49.70;;;;;;5034080;28;20508;-66
2023/06/03 02:58:15;;;;;;;4.17;3.73;;;27.20;49.70;;;;;;5032542;28;20478;-65
2023/06/03 03:00:43;;;;;;;5.43;4.27;;;27.20;49.70;;;;;;5033377;28;20541;-65
2023/06/03 03:03:13;;;;;;;3.80;3.40;;;27.20;49.90;;;;;;5033884;28;20530;-65
2023/06/03 03:05:41;;;;;;;4.40;4.00;;;27.20;49.90;;;;;;5032227;28;20467;-65
2023/06/03 03:08:09;;;;;;;6.60;3.50;;;27.20;49.90;;;;;;5036791;28;20490;-65
2023/06/03 03:10:40;;;;;;;4.23;3.93;;;27.20;49.90;;;;;;5033511;28;20530;-66
2023/06/03 03:13:10;;;;;;;4.20;3.90;;;27.10;49.90;;;;;;5032020;28;20554;-64
2023/06/03 03:15:38;;;;;;;3.47;3.17;;;27.10;50.00;;;;;;5030117;28;20807;-65
2023/06/03 03:18:07;;;;;;;4.20;3.90;;;27.10;50.00;;;;;;5033873;28;20940;-64
2023/06/03 03:20:36;;;;;;;4.60;4.20;;;27.10;49.80;;;;;;5017984;28;20460;-65
2023/06/03 03:23:06;;;;;;;4.40;4.00;;;27.10;49.90;;;;;;5032450;28;20543;-66
2023/06/03 03:25:34;;;;;;;5.30;3.80;;;27.10;49.80;;;;;;5025349;28;20475;-66
2023/06/03 03:28:03;;;;;;;5.17;3.70;;;27.10;49.80;;;;;;5024925;28;20999;-65
2023/06/03 03:30:33;;;;;;;3.70;3.50;;;27.10;49.80;;;;;;5031123;28;20542;-65
2023/06/03 03:33:01;;;;;;;3.67;3.33;;;27.00;49.90;;;;;;5031852;28;20486;-66
2023/06/03 03:35:30;;;;;;;4.43;4.13;;;27.00;49.80;;;;;;5031230;28;20555;-66
2023/06/03 03:38:03;;;;;;;4.50;3.70;;;27.00;49.90;;;;;;5032744;28;21006;-64
2023/06/03 03:40:34;;;;;;;4.77;3.90;;;27.00;49.90;;;;;;5032335;28;20466;-66
2023/06/03 03:43:03;;;;;;;3.73;3.40;;;27.00;49.90;;;;;;5027630;28;20901;-64
2023/06/03 03:45:36;;;;;;;6.60;3.60;;;27.00;49.70;;;;;;5031926;28;20549;-64
2023/06/03 03:48:13;;;;;;;4.97;4.47;;;27.00;49.90;;;;;;5039478;28;20837;-64
2023/06/03 03:50:43;;;;;;;4.63;3.93;;;27.00;49.80;;;;;;5028476;28;20455;-65
2023/06/03 03:53:15;;;;;;;5.33;3.73;;;27.00;49.80;;;;;;5031985;28;20884;-65
2023/06/03 03:55:45;;;;;;;4.10;3.53;;;27.00;49.80;;;;;;5032464;28;21042;-64
2023/06/03 03:58:24;;;;;;;4.23;3.83;;;27.00;49.80;;;;;;5032140;28;20496;-66
2023/06/03 04:00:57;;;;;;;4.50;3.70;;;27.00;49.90;;;;;;5026907;28;20455;-64
2023/06/03 04:03:26;;;;;;;3.90;3.50;;;27.00;49.90;;;;;;5027372;28;20469;-67
2023/06/03 04:05:55;;;;;;;6.27;4.07;;;27.00;49.80;;;;;;5034997;28;20488;-66
2023/06/03 04:08:39;;;;;;;4.13;3.67;;;27.00;49.70;;;;;;5031286;28;20481;-66
2023/06/03 04:11:09;;;;;;;4.47;4.07;;;26.90;49.90;;;;;;5022109;28;20785;-66
2023/06/03 04:13:38;;;;;;;4.20;3.80;;;26.90;49.90;;;;;;5030951;28;20544;-64
2023/06/03 04:16:11;;;;;;;3.77;3.37;;;26.90;49.90;;;;;;5027647;28;21023;-65
2023/06/03 04:18:41;;;;;;;7.13;3.87;;;26.90;49.80;;;;;;5033819;28;20482;-66
2023/06/03 04:21:17;;;;;;;6.23;3.47;;;26.90;49.90;;;;;;5029927;28;20517;-66
2023/06/03 04:23:46;;;;;;;5.10;4.70;;;26.90;50.00;;;;;;5031154;28;20461;-65
2023/06/03 04:26:16;;;;;;;6.57;4.30;;;26.90;49.90;;;;;;5031704;28;20973;-64
2023/06/03 04:28:45;;;;;;;3.80;3.50;;;26.90;49.80;;;;;;5029728;28;20496;-65
2023/06/03 04:31:17;;;;;;;5.27;4.57;;;26.90;49.90;;;;;;5032986;28;20471;-65
2023/06/03 04:33:45;;;;;;;5.43;3.40;;;26.90;49.80;;;;;;5030891;28;20493;-65
2023/06/03 04:36:13;;;;;;;4.70;3.73;;;26.90;49.90;;;;;;5030429;28;21324;-65
2023/06/03 04:38:43;;;;;;;4.33;4.03;;;26.90;49.90;;;;;;5030690;28;20538;-65
2023/06/03 04:41:11;;;;;;;5.90;4.83;;;26.90;49.90;;;;;;5027962;28;20465;-64
2023/06/03 04:43:45;;;;;;;3.87;3.57;;;26.90;49.90;;;;;;5030338;28;20952;-65
2023/06/03 04:46:17;;;;;;;3.77;3.43;;;26.90;49.90;;;;;;5028318;28;20455;-66
2023/06/03 04:48:48;;;;;;;5.50;3.30;;;26.90;50.00;;;;;;5030272;28;20470;-65
2023/06/03 04:51:16;;;;;;;5.27;4.10;;;26.90;49.80;;;;;;5031379;28;20537;-65
2023/06/03 04:53:45;;;;;;;4.93;3.53;;;26.90;49.80;;;;;;5029139;28;20521;-66
2023/06/03 04:56:14;;;;;;;3.93;3.53;;;26.90;49.90;;;;;;5029053;28;20471;-65
2023/06/03 04:58:42;;;;;;;3.77;3.47;;;26.90;49.90;;;;;;5030303;28;20459;-65
2023/06/03 05:01:21;;;;;;;4.43;3.73;;;26.90;49.90;;;;;;5044954;28;20888;-65
2023/06/03 05:03:49;;;;;;;4.30;3.53;;;26.90;49.90;;;;;;5027786;28;20518;-66
2023/06/03 05:06:18;;;;;;;3.90;3.53;;;26.90;49.80;;;;;;5027550;28;20468;-66
2023/06/03 05:08:48;;;;;;;4.47;3.47;;;26.90;49.90;;;;;;5022166;28;20476;-65
2023/06/03 05:11:17;;;;;;;4.73;3.80;;;26.90;50.00;;;;;;5030417;28;20859;-65
2023/06/03 05:13:46;;;;;;;5.13;3.70;;;26.90;49.80;;;;;;5020010;28;20958;-65
2023/06/03 05:16:15;;;;;;;6.67;4.20;;;26.90;49.90;;;;;;5018978;28;20472;-66
2023/06/03 05:18:45;;;;;;;3.50;3.10;;;26.90;49.80;;;;;;5022554;28;20533;-65
2023/06/03 05:21:17;;;;;;;5.73;4.40;;;26.90;50.00;;;;;;5037112;28;20463;-64
2023/06/03 05:23:45;;;;;;;4.13;3.63;;;26.90;49.80;;;;;;5018657;28;20471;-66
2023/06/03 05:26:14;;;;;;;5.73;4.10;;;27.00;49.90;;;;;;5010659;28;20472;-65
2023/06/03 05:28:43;;;;;;;4.47;4.07;;;27.00;49.90;;;;;;5012211;28;20486;-65
2023/06/03 05:31:12;;;;;;;4.90;3.50;;;27.00;49.90;;;;;;5030620;28;20463;-65
2023/06/03 05:33:41;;;;;;;3.63;3.33;;;27.00;49.80;;;;;;5030159;28;20472;-66
2023/06/03 05:36:16;;;;;;;4.60;3.60;;;27.00;49.80;;;;;;5015359;28;20471;-65
2023/06/03 05:38:45;;;;;;;4.37;4.03;;;27.00;49.90;;;;;;5026710;28;20466;-65
2023/06/03 05:41:15;;;;;;;3.73;3.53;;;27.00;49.80;;;;;;5027141;28;20460;-65
2023/06/03 05:43:44;;;;;;;3.90;3.60;;;27.00;49.80;;;;;;5029097;28;20467;-65
2023/06/03 05:46:12;;;;;;;3.30;3.10;;;27.00;49.80;;;;;;5029737;28;20478;-66
2023/06/03 05:48:43;;;;;;;4.17;3.60;;;27.00;49.80;;;;;;5026935;28;20471;-66
2023/06/03 05:51:11;;;;;;;3.83;3.43;;;27.00;49.80;;;;;;5031939;28;20462;-65
2023/06/03 05:53:43;;;;;;;3.60;3.30;;;27.00;49.80;;;;;;5015894;28;20459;-65
2023/06/03 05:56:14;;;;;;;4.03;3.73;;;27.00;49.90;;;;;;5025593;28;20471;-65
2023/06/03 05:58:43;;;;;;;4.10;3.80;;;27.00;49.80;;;;;;5013808;28;20467;-64
2023/06/03 06:01:12;;;;;;;3.87;3.57;;;27.00;49.90;;;;;;5019282;28;21054;-65
2023/06/03 06:03:41;;;;;;;5.30;3.93;;;27.00;49.80;;;;;;5019577;28;20562;-65
2023/06/03 06:06:09;;;;;;;4.50;3.90;;;27.00;49.80;;;;;;5017642;28;20472;-65
2023/06/03 06:08:38;;;;;;;4.73;4.23;;;27.00;49.80;;;;;;5015474;28;20454;-65
2023/06/03 06:11:07;;;;;;;4.90;3.67;;;27.00;49.90;;;;;;5033521;28;20482;-66
2023/06/03 06:13:36;;;;;;;5.20;3.47;;;27.00;49.80;;;;;;5031894;28;20456;-64
2023/06/03 06:16:06;;;;;;;5.10;3.47;;;27.00;49.80;;;;;;5028385;28;20460;-65
2023/06/03 06:18:36;;;;;;;4.40;4.00;;;27.00;49.90;;;;;;5025979;28;20516;-65
2023/06/03 06:21:05;;;;;;;3.93;3.53;;;27.00;49.90;;;;;;5033570;28;20451;-65
2023/06/03 06:23:37;;;;;;;3.57;3.30;;;27.00;49.90;;;;;;5033133;28;20598;-65
2023/06/03 06:26:07;;;;;;;3.57;3.30;;;27.00;49.90;;;;;;5044655;28;21212;-64
2023/06/03 06:28:35;;;;;;;6.40;4.10;;;27.00;49.90;;;;;;5053487;28;21380;-64
2023/06/03 06:31:08;;;;;;;4.20;3.90;;;27.00;49.90;;;;;;5052301;28;21003;-65
2023/06/03 06:33:47;;;;;;;4.50;4.10;;;27.00;49.90;;;;;;5038289;28;20479;-64
2023/06/03 06:36:37;;;;;;;3.93;3.60;;;27.00;50.00;;;;;;5032783;28;20479;-65
2023/06/03 06:39:35;;;;;;;3.70;3.40;;;27.00;50.00;;;;;;5026599;28;20463;-64
2023/06/03 06:42:14;;;;;;;4.70;3.80;;;27.00;49.90;;;;;;5023366;28;20460;-65
2023/06/03 06:44:51;;;;;;;4.03;3.60;;;27.00;49.90;;;;;;5022418;28;20459;-65
2023/06/03 06:47:22;;;;;;;3.83;3.53;;;27.00;49.90;;;;;;5025525;28;20809;-65
2023/06/03 06:49:56;;;;;;;4.10;3.70;;;27.00;50.00;;;;;;5024265;28;20478;-64
2023/06/03 06:52:27;;;;;;;4.60;3.90;;;27.00;50.00;;;;;;5023662;28;20470;-65
2023/06/03 06:54:58;;;;;;;4.70;4.30;;;27.00;50.00;;;;;;5026425;28;20469;-66
2023/06/03 06:57:30;;;;;;;4.73;4.43;;;27.00;50.00;;;;;;5025028;28;20518;-65
2023/06/03 06:59:59;;;;;;;3.80;3.50;;;27.10;50.10;;;;;;5022178;28;20471;-65
2023/06/03 07:02:28;;;;;;;4.50;4.10;;;27.00;50.10;;;;;;5023155;28;20494;-66
2023/06/03 07:04:57;;;;;;;6.90;4.07;;;27.10;50.10;;;;;;5022025;28;20548;-66
2023/06/03 07:07:27;;;;;;;5.20;3.40;;;27.10;50.10;;;;;;5022453;28;20506;-65
2023/06/03 07:09:55;;;;;;;5.60;3.40;;;27.10;50.10;;;;;;5024955;28;20570;-65
2023/06/03 07:12:24;;;;;;;4.20;3.80;;;27.10;50.20;;;;;;5023242;28;20463;-67
2023/06/03 07:14:53;;;;;;;4.60;3.93;;;27.10;50.20;;;;;;5021996;28;20463;-68
2023/06/03 07:17:22;;;;;;;4.07;3.67;;;27.10;50.30;;;;;;5026607;28;20518;-65
2023/06/03 07:19:50;;;;;;;3.53;3.33;;;27.10;50.50;;;;;;5033710;28;21029;-66
2023/06/03 07:22:19;;;;;;;4.33;3.83;;;27.10;50.60;;;;;;5026949;28;20457;-65
2023/06/03 07:24:47;;;;;;;4.00;3.70;;;27.10;50.60;;;;;;5024442;28;20463;-66
2023/06/03 07:27:23;;;;;;;5.43;4.80;;;27.10;50.60;;;;;;5023165;28;20953;-68
2023/06/03 07:29:55;;;;;;;4.37;3.50;;;27.20;50.60;;;;;;5022137;28;20459;-62
2023/06/03 07:32:25;;;;;;;4.10;3.60;;;27.20;51.10;;;;;;5026993;28;20444;-62
2023/06/03 07:34:54;;;;;;;3.70;3.40;;;27.20;50.80;;;;;;5038013;28;20448;-63
2023/06/03 07:37:22;;;;;;;4.30;3.90;;;27.20;50.80;;;;;;5025283;28;20476;-63
2023/06/03 07:39:50;;;;;;;3.80;3.40;;;27.20;50.80;;;;;;5026874;28;20525;-63
2023/06/03 07:42:21;;;;;;;4.10;3.60;;;27.30;50.80;;;;;;5023852;28;20467;-62
2023/06/03 07:45:17;;;;;;;4.43;3.77;;;27.30;51.10;;;;;;5022439;28;20451;-63
2023/06/03 07:47:45;;;;;;;4.90;3.40;;;27.30;51.10;;;;;;5028283;28;20505;-63
2023/06/03 07:50:26;;;;;;;4.07;3.67;;;27.30;51.10;;;;;;5023226;28;21001;-64
2023/06/03 07:53:00;;;;;;;4.23;3.40;;;27.30;51.10;;;;;;5024255;28;20455;-64
2023/06/03 07:55:37;;;;;;;4.17;3.77;;;27.30;51.20;;;;;;5031446;28;20447;-63
2023/06/03 07:58:06;;;;;;;5.80;4.07;;;27.30;51.20;;;;;;5027270;28;20451;-62
2023/06/03 08:00:38;;;;;;;6.20;3.90;;;27.30;51.60;;;;;;5023159;28;20457;-63
2023/06/03 08:03:07;;;;;;;6.60;4.13;;;27.30;51.50;;;;;;5022832;28;20464;-63
2023/06/03 08:05:37;;;;;;;4.07;3.67;;;27.30;51.50;;;;;;5022782;28;20465;-63
2023/06/03 08:08:06;;;;;;;3.90;3.60;;;27.30;51.50;;;;;;5024407;28;20463;-63
2023/06/03 08:10:36;;;;;;;6.27;3.80;;;27.30;51.50;;;;;;5024390;28;20503;-65
2023/06/03 08:13:06;;;;;;;5.37;3.80;;;27.30;51.50;;;;;;5020118;28;20584;-63
2023/06/03 08:15:38;;;;;;;5.37;4.60;;;27.40;51.60;;;;;;5024829;28;20510;-64
2023/06/03 08:18:08;;;;;;;4.87;3.83;;;27.40;51.60;;;;;;5029064;28;20446;-63
2023/06/03 08:20:37;;;;;;;3.53;3.27;;;27.40;51.60;;;;;;5023301;28;20999;-63
2023/06/03 08:23:05;;;;;;;4.00;3.40;;;27.40;51.70;;;;;;5027852;28;20462;-63
2023/06/03 08:25:34;;;;;;;3.90;3.50;;;27.40;51.70;;;;;;5029869;28;20481;-62
2023/06/03 08:28:02;;;;;;;4.53;3.63;;;27.40;51.70;;;;;;5028078;28;20746;-63
2023/06/03 08:30:30;;;;;;;4.33;4.00;;;27.40;51.60;;;;;;5028333;28;20460;-66
2023/06/03 08:33:00;;;;;;;3.60;3.30;;;27.40;51.60;;;;;;5028848;28;21027;-66
2023/06/03 08:35:28;;;;;;;4.77;4.20;;;27.40;51.50;;;;;;5024697;28;20463;-65
2023/06/03 08:37:57;;;;;;;3.47;3.27;;;27.40;51.50;;;;;;5027137;28;20462;-65
2023/06/03 08:40:26;;;;;;;4.77;3.50;;;27.40;51.40;;;;;;5025198;28;20471;-67
2023/06/03 08:43:00;;;;;;;4.50;4.10;;;27.40;51.50;;;;;;5030297;28;20506;-65
2023/06/03 08:45:35;;;;;;;4.53;4.20;;;27.40;51.40;;;;;;5023607;28;21022;-65
2023/06/03 08:48:14;;;;;;;4.03;3.43;;;27.40;51.50;;;;;;5029336;28;22121;-65
2023/06/03 08:50:50;;;;;;;3.93;3.63;;;27.40;51.40;;;;;;5027703;28;20447;-66
2023/06/03 08:53:20;;;;;;;4.80;4.30;;;27.40;51.50;;;;;;5026141;28;20452;-65
2023/06/03 08:55:51;;;;;;;4.10;3.80;;;27.40;51.60;;;;;;5027296;28;20464;-66
2023/06/03 08:58:25;;;;;;;4.87;3.80;;;27.50;51.60;;;;;;5029104;28;20452;-65
2023/06/03 09:00:56;;;;;;;4.30;3.90;;;27.40;51.60;;;;;;5026533;28;20466;-65
2023/06/03 09:03:27;;;;;;;4.07;3.33;;;27.40;51.60;;;;;;5028620;28;21340;-66
2023/06/03 09:05:56;;;;;;;4.07;3.70;;;27.40;51.60;;;;;;5025412;28;20549;-67
2023/06/03 09:08:25;;;;;;;3.80;3.50;;;27.50;51.60;;;;;;5026665;28;20510;-66
2023/06/03 09:10:54;;;;;;;3.70;3.47;;;27.50;51.60;;;;;;5027065;28;20463;-65
2023/06/03 09:13:24;;;;;;;3.67;3.37;;;27.50;51.70;;;;;;5028024;28;20547;-66
2023/06/03 09:15:52;;;;;;;4.13;3.83;;;27.50;51.70;;;;;;5033508;28;20543;-65
2023/06/03 09:18:21;;;;;;;4.00;3.67;;;27.50;51.70;;;;;;5031099;28;20468;-65
2023/06/03 09:20:51;;;;;;;8.57;4.87;;;27.50;51.70;;;;;;5027205;28;20533;-65
2023/06/03 09:23:20;;;;;;;4.13;3.67;;;27.50;51.70;;;;;;5030349;28;20451;-65
2023/06/03 09:25:49;;;;;;;4.17;3.87;;;27.50;51.70;;;;;;5028372;28;20492;-65
2023/06/03 09:28:17;;;;;;;4.40;3.70;;;27.50;51.70;;;;;;5029487;28;20602;-65
2023/06/03 09:30:46;;;;;;;4.47;3.80;;;27.50;51.70;;;;;;5027988;28;20556;-64
2023/06/03 09:33:14;;;;;;;4.87;3.80;;;27.50;51.70;;;;;;5029279;28;20464;-65
2023/06/03 09:35:42;;;;;;;5.27;3.60;;;27.50;51.70;;;;;;5024753;28;20458;-65
2023/06/03 09:38:12;;;;;;;4.40;3.63;;;27.50;51.70;;;;;;5026772;28;20460;-66
2023/06/03 09:40:41;;;;;;;3.80;3.50;;;27.50;51.70;;;;;;5028258;28;20511;-66
2023/06/03 09:43:12;;;;;;;3.90;3.60;;;27.50;51.70;;;;;;5023857;28;20522;-64
2023/06/03 09:45:41;;;;;;;4.40;4.10;;;27.50;51.80;;;;;;5023640;28;21124;-65
2023/06/03 09:48:10;;;;;;;3.60;3.40;;;27.50;51.80;;;;;;5026768;28;20457;-65
2023/06/03 09:50:50;;;;;;;4.97;4.47;;;27.50;51.80;;;;;;5032058;28;20540;-65
2023/06/03 09:53:20;;;;;;;3.60;3.30;;;27.50;51.80;;;;;;5030209;28;20477;-66
2023/06/03 09:55:49;;;;;;;3.83;3.53;;;27.50;51.80;;;;;;5032224;28;20456;-65
2023/06/03 09:58:23;;;;;;;4.17;3.80;;;27.50;51.80;;;;;;5034398;28;20476;-64
2023/06/03 10:00:54;;;;;;;4.83;4.43;;;27.50;51.80;;;;;;5029621;28;20454;-65
2023/06/03 10:03:25;;;;;;;3.50;3.20;;;27.50;51.80;;;;;;5039209;28;20761;-66
2023/06/03 10:05:53;;;;;;;4.50;4.20;;;27.50;51.80;;;;;;5034683;28;20467;-65
2023/06/03 10:08:30;;;;;;;3.83;3.53;;;27.60;51.90;;;;;;5030742;28;20450;-65
2023/06/03 10:11:00;;;;;;;3.97;3.67;;;27.50;51.90;;;;;;5043857;28;20466;-65
2023/06/03 10:13:28;;;;;;;5.00;4.50;;;27.50;51.90;;;;;;5036827;28;20474;-65
2023/06/03 10:15:58;;;;;;;3.90;3.60;;;27.60;51.90;;;;;;5037947;28;20447;-65
2023/06/03 10:18:37;;;;;;;4.20;3.83;;;27.50;51.90;;;;;;5029267;28;20800;-66
2023/06/03 10:21:10;;;;;;;4.87;4.30;;;27.50;52.00;;;;;;5035171;28;20450;-65
2023/06/03 10:23:41;;;;;;;4.20;3.80;;;27.60;52.00;;;;;;5035004;28;20456;-65
2023/06/03 10:26:10;;;;;;;4.87;4.07;;;27.50;52.00;;;;;;5024121;28;20454;-64
2023/06/03 10:28:39;;;;;;;3.63;3.33;;;27.50;52.00;;;;;;5021053;28;20542;-67
2023/06/03 10:31:08;;;;;;;3.90;3.60;;;27.50;52.00;;;;;;5035144;28;20450;-65
2023/06/03 10:33:38;;;;;;;4.73;3.90;;;27.60;52.00;;;;;;5031405;28;20474;-64
2023/06/03 10:36:09;;;;;;;3.90;3.60;;;27.50;52.10;;;;;;5035176;28;20461;-65
2023/06/03 10:38:39;;;;;;;4.67;4.30;;;27.50;52.10;;;;;;5036792;28;20450;-65
2023/06/03 10:41:09;;;;;;;7.23;4.63;;;27.60;52.10;;;;;;5036414;28;20459;-65
2023/06/03 10:43:38;;;;;;;7.93;5.07;;;27.60;52.00;;;;;;5028990;28;20464;-65
2023/06/03 10:46:07;;;;;;;6.37;5.50;;;27.60;52.00;;;;;;5023506;28;20470;-64
2023/06/03 10:48:39;;;;;;;8.17;5.77;;;27.60;52.00;;;;;;5032703;28;20457;-64
2023/06/03 10:51:24;;;;;;;10.40;6.70;;;27.60;52.00;;;;;;5026957;28;20484;-64
2023/06/03 10:54:08;;;;;;;12.60;7.17;;;27.60;52.00;;;;;;5033848;28;20476;-64
2023/06/03 10:56:43;;;;;;;10.87;6.67;;;27.60;52.00;;;;;;5034193;28;20463;-64
2023/06/03 10:59:21;;;;;;;11.70;6.60;;;27.60;52.00;;;;;;5035005;28;20460;-64
2023/06/03 11:02:00;;;;;;;10.57;7.07;;;27.60;52.00;;;;;;5016624;28;20459;-66
2023/06/03 11:04:30;;;;;;;10.57;8.33;;;27.60;52.00;;;;;;5024320;28;20963;-64
2023/06/03 11:06:58;;;;;;;15.33;8.73;;;27.60;52.00;;;;;;5030885;28;20456;-66
2023/06/03 11:09:36;;;;;;;17.40;10.30;;;27.60;52.10;;;;;;5032021;28;20471;-64
2023/06/03 11:12:10;;;;;;;22.37;10.97;;;27.60;52.10;;;;;;5029524;28;20498;-64
2023/06/03 11:15:06;;;;;;;16.63;9.73;;;27.70;52.10;;;;;;5028339;28;20459;-64
2023/06/03 11:17:36;;;;;;;21.23;11.27;;;27.70;52.10;;;;;;5040174;28;20974;-64
2023/06/03 11:20:04;;;;;;;16.73;10.00;;;27.70;52.10;;;;;;5031646;28;20472;-64
2023/06/03 11:22:44;;;;;;;17.30;11.37;;;27.70;52.00;;;;;;5027158;28;20462;-64
2023/06/03 11:25:33;;;;;;;23.30;11.90;;;27.70;52.10;;;;;;5036183;28;21017;-64
2023/06/03 11:28:34;;;;;;;21.90;11.60;;;27.60;52.20;;;;;;5036912;28;20846;-65
2023/06/03 11:31:05;;;;;;;22.30;10.90;;;27.60;52.20;;;;;;5020349;28;20455;-64
2023/06/03 11:33:35;;;;;;;23.73;10.93;;;27.60;52.30;;;;;;5033502;28;20503;-65
2023/06/03 11:36:55;;;;;;;19.33;10.53;;;27.50;52.40;;;;;;5040396;28;20495;-65
2023/06/03 11:39:24;;;;;;;16.90;10.73;;;27.50;52.40;;;;;;5037135;28;20468;-64
2023/06/03 11:42:11;;;;;;;18.53;11.83;;;27.50;52.50;;;;;;5046520;28;20819;-64
2023/06/03 11:44:42;;;;;;;23.50;11.50;;;27.50;52.50;;;;;;5033520;28;20461;-64
2023/06/03 11:47:10;;;;;;;22.00;10.90;;;27.50;52.60;;;;;;5034483;28;20525;-64
2023/06/03 11:49:40;;;;;;;29.50;11.90;;;27.50;52.60;;;;;;5037222;28;20447;-66
2023/06/03 11:52:09;;;;;;;25.50;11.87;;;27.50;52.50;;;;;;5026436;28;20935;-64
2023/06/03 11:54:44;;;;;;;19.93;11.40;;;27.50;52.60;;;;;;5044075;28;20491;-64
2023/06/03 11:57:14;;;;;;;28.43;11.90;;;27.50;52.50;;;;;;5043857;28;20552;-64
2023/06/03 11:59:44;;;;;;;20.67;10.73;;;27.60;52.50;;;;;;5045445;28;20456;-64
2023/06/03 12:02:13;;;;;;;23.10;11.40;;;27.70;52.50;;;;;;5041782;28;20458;-64
2023/06/03 12:04:41;;;;;;;19.60;10.80;;;27.70;52.40;;;;;;5026830;28;20516;-64
2023/06/03 12:07:14;;;;;;;23.50;12.13;;;27.80;52.30;;;;;;5035768;28;20539;-64
2023/06/03 12:09:43;;;;;;;20.40;11.27;;;27.90;52.10;;;;;;5041311;28;20475;-66
2023/06/03 12:12:13;;;;;;;17.40;10.57;;;28.00;52.10;;;;;;5033319;28;20465;-65
2023/06/03 12:14:44;;;;;;;21.83;12.00;;;28.10;52.00;;;;;;5034716;28;20455;-65
2023/06/03 12:17:14;;;;;;;19.93;11.00;;;28.30;51.80;;;;;;5024174;28;20926;-65
2023/06/03 12:19:44;;;;;;;19.53;11.37;;;28.50;51.40;;;;;;5029783;28;20457;-64
2023/06/03 12:22:13;;;;;;;13.47;8.77;;;28.50;51.00;;;;;;5032092;28;20446;-64
2023/06/03 12:24:43;;;;;;;15.60;9.60;;;28.40;51.20;;;;;;5035959;28;20513;-64
2023/06/03 12:27:12;;;;;;;17.63;10.13;;;28.50;51.30;;;;;;5043703;28;20457;-65
2023/06/03 12:29:47;;;;;;;13.77;8.47;;;28.60;51.10;;;;;;5030392;28;20463;-65
2023/06/03 12:32:16;;;;;;;13.50;9.43;;;28.70;50.90;;;;;;5040942;28;20471;-64
2023/06/03 12:34:46;;;;;;;13.63;10.30;;;28.70;50.80;;;;;;5040606;28;20563;-65
2023/06/03 12:37:27;;;;;;;10.70;7.80;;;28.80;50.70;;;;;;5035074;28;20470;-64
2023/06/03 12:39:55;;;;;;;15.30;7.70;;;28.80;50.70;;;;;;5025958;28;20952;-64
2023/06/03 12:42:35;;;;;;;12.60;8.10;;;28.80;50.60;;;;;;5022701;28;20532;-65
2023/06/03 12:45:06;;;;;;;11.43;7.63;;;28.90;50.60;;;;;;5030102;28;20466;-64
2023/06/03 12:47:45;;;;;;;11.60;7.97;;;28.80;50.60;;;;;;5039129;28;20523;-64
2023/06/03 12:50:15;;;;;;;9.60;8.60;;;28.90;50.60;;;;;;5036450;28;20960;-64
2023/06/03 12:52:43;;;;;;;9.77;7.40;;;28.80;50.60;;;;;;5036487;28;20450;-64
2023/06/03 12:55:14;;;;;;;7.77;6.80;;;28.80;50.60;;;;;;5038935;28;20459;-64
2023/06/03 12:57:43;;;;;;;9.17;7.00;;;28.80;50.60;;;;;;5030788;28;20597;-64
2023/06/03 13:00:15;;;;;;;7.50;6.43;;;28.80;50.60;;;;;;5034887;28;20949;-64
2023/06/03 13:02:47;;;;;;;8.57;6.80;;;28.80;50.70;;;;;;5029579;28;20461;-64
2023/06/03 13:05:16;;;;;;;11.53;7.53;;;28.70;50.60;;;;;;5034223;28;20541;-64